sensor_id;sensor_type;location;lat;lon;timestamp;pressure;altitude;pressure_sealevel;temperature;humidity
75298;BME280;63896;45.990;18.688;2022-10-17T00:00:57;101962.91;;;10.44;82.71
75298;BME280;63896;45.990;18.688;2022-10-17T00:04:00;101964.44;;;10.39;82.47
75298;BME280;63896;45.990;18.688;2022-10-17T00:07:03;101968.78;;;10.32;82.50
75298;BME280;63896;45.990;18.688;2022-10-17T00:10:06;101971.78;;;10.29;83.10
75298;BME280;63896;45.990;18.688;2022-10-17T00:13:10;101975.31;;;10.21;84.01
75298;BME280;63896;45.990;18.688;2022-10-17T00:16:17;101978.75;;;10.30;84.32
75298;BME280;63896;45.990;18.688;2022-10-17T00:19:24;101974.47;;;10.21;84.45
75298;BME280;63896;45.990;18.688;2022-10-17T00:22:27;101973.34;;;10.15;85.05
75298;BME280;63896;45.990;18.688;2022-10-17T00:25:30;101973.16;;;10.17;84.85
75298;BME280;63896;45.990;18.688;2022-10-17T00:28:33;101981.44;;;10.22;85.02
75298;BME280;63896;45.990;18.688;2022-10-17T00:31:36;101977.31;;;10.11;85.31
75298;BME280;63896;45.990;18.688;2022-10-17T00:34:39;101976.47;;;10.11;85.30
75298;BME280;63896;45.990;18.688;2022-10-17T00:37:42;101981.94;;;10.09;85.18
75298;BME280;63896;45.990;18.688;2022-10-17T00:40:44;101986.28;;;10.02;85.40
75298;BME280;63896;45.990;18.688;2022-10-17T00:43:57;101986.13;;;10.03;85.09
75298;BME280;63896;45.990;18.688;2022-10-17T00:47:03;101985.28;;;10.19;84.16
75298;BME280;63896;45.990;18.688;2022-10-17T00:50:10;101990.19;;;10.30;83.26
75298;BME280;63896;45.990;18.688;2022-10-17T00:53:15;101992.03;;;10.30;83.25
75298;BME280;63896;45.990;18.688;2022-10-17T00:56:19;101994.16;;;10.34;82.35
75298;BME280;63896;45.990;18.688;2022-10-17T00:59:23;101993.53;;;10.24;82.82
75298;BME280;63896;45.990;18.688;2022-10-17T01:02:26;101997.88;;;10.17;82.95
75298;BME280;63896;45.990;18.688;2022-10-17T01:05:30;102000.19;;;10.04;83.44
75298;BME280;63896;45.990;18.688;2022-10-17T01:08:34;102006.81;;;10.08;83.44
75298;BME280;63896;45.990;18.688;2022-10-17T01:21:29;101988.59;;;10.05;83.22
75298;BME280;63896;45.990;18.688;2022-10-17T01:28:17;101979.50;;;10.08;82.82
75298;BME280;63896;45.990;18.688;2022-10-17T01:31:35;101981.59;;;10.12;82.65
75298;BME280;63896;45.990;18.688;2022-10-17T01:35:15;101979.47;;;10.16;82.59
75298;BME280;63896;45.990;18.688;2022-10-17T01:38:31;101979.97;;;10.19;82.58
75298;BME280;63896;45.990;18.688;2022-10-17T01:41:42;101978.66;;;10.15;82.37
75298;BME280;63896;45.990;18.688;2022-10-17T01:47:59;101970.00;;;10.13;81.97
75298;BME280;63896;45.990;18.688;2022-10-17T01:51:09;101977.47;;;10.18;81.22
75298;BME280;63896;45.990;18.688;2022-10-17T01:54:19;101974.19;;;10.08;81.82
75298;BME280;63896;45.990;18.688;2022-10-17T01:57:29;101978.66;;;10.15;81.64
75298;BME280;63896;45.990;18.688;2022-10-17T02:00:35;101983.78;;;10.17;81.70
75298;BME280;63896;45.990;18.688;2022-10-17T02:03:41;101974.66;;;10.11;81.68
75298;BME280;63896;45.990;18.688;2022-10-17T02:06:45;101986.63;;;10.07;82.01
75298;BME280;63896;45.990;18.688;2022-10-17T02:09:48;101979.31;;;10.01;82.31
75298;BME280;63896;45.990;18.688;2022-10-17T02:12:55;101994.72;;;10.05;82.18
75298;BME280;63896;45.990;18.688;2022-10-17T02:22:53;101988.13;;;9.93;82.80
75298;BME280;63896;45.990;18.688;2022-10-17T02:26:18;101993.47;;;9.85;83.16
75298;BME280;63896;45.990;18.688;2022-10-17T02:29:36;101993.66;;;9.84;83.08
75298;BME280;63896;45.990;18.688;2022-10-17T02:33:09;102002.59;;;9.83;82.86
75298;BME280;63896;45.990;18.688;2022-10-17T02:36:18;101996.66;;;9.81;83.20
75298;BME280;63896;45.990;18.688;2022-10-17T02:39:24;101999.28;;;9.81;83.09
75298;BME280;63896;45.990;18.688;2022-10-17T02:42:31;102002.09;;;9.79;82.93
75298;BME280;63896;45.990;18.688;2022-10-17T02:45:36;102006.09;;;9.75;83.03
75298;BME280;63896;45.990;18.688;2022-10-17T02:48:43;101995.81;;;9.72;83.07
75298;BME280;63896;45.990;18.688;2022-10-17T02:52:01;101997.50;;;9.65;83.16
75298;BME280;63896;45.990;18.688;2022-10-17T02:58:39;102000.31;;;9.55;83.74
75298;BME280;63896;45.990;18.688;2022-10-17T03:01:45;101995.22;;;9.46;83.82
75298;BME280;63896;45.990;18.688;2022-10-17T03:04:48;101998.84;;;9.45;84.04
75298;BME280;63896;45.990;18.688;2022-10-17T03:07:52;101997.03;;;9.53;83.69
75298;BME280;63896;45.990;18.688;2022-10-17T03:10:55;102006.78;;;9.53;83.57
75298;BME280;63896;45.990;18.688;2022-10-17T03:13:58;102004.97;;;9.53;83.19
75298;BME280;63896;45.990;18.688;2022-10-17T03:17:02;102012.75;;;9.47;83.43
75298;BME280;63896;45.990;18.688;2022-10-17T03:20:06;102008.13;;;9.41;83.74
75298;BME280;63896;45.990;18.688;2022-10-17T03:23:09;102013.22;;;9.42;83.38
75298;BME280;63896;45.990;18.688;2022-10-17T03:26:12;102019.22;;;9.36;83.99
75298;BME280;63896;45.990;18.688;2022-10-17T03:29:15;102017.25;;;9.30;84.01
75298;BME280;63896;45.990;18.688;2022-10-17T03:32:18;102013.41;;;9.25;83.92
75298;BME280;63896;45.990;18.688;2022-10-17T03:35:21;102022.53;;;9.22;83.71
75298;BME280;63896;45.990;18.688;2022-10-17T03:38:25;102018.56;;;9.18;83.53
75298;BME280;63896;45.990;18.688;2022-10-17T03:41:28;102019.88;;;9.22;82.69
75298;BME280;63896;45.990;18.688;2022-10-17T03:44:30;102017.88;;;9.16;83.13
75298;BME280;63896;45.990;18.688;2022-10-17T03:47:34;102028.00;;;9.29;82.63
75298;BME280;63896;45.990;18.688;2022-10-17T03:50:37;102016.41;;;9.22;82.79
75298;BME280;63896;45.990;18.688;2022-10-17T03:53:41;102019.69;;;9.32;82.41
75298;BME280;63896;45.990;18.688;2022-10-17T03:56:44;102025.34;;;9.21;82.68
75298;BME280;63896;45.990;18.688;2022-10-17T03:59:51;102016.72;;;9.02;83.33
75298;BME280;63896;45.990;18.688;2022-10-17T04:02:56;102025.16;;;9.06;83.66
75298;BME280;63896;45.990;18.688;2022-10-17T04:06:03;102038.38;;;8.98;83.88
75298;BME280;63896;45.990;18.688;2022-10-17T04:09:09;102033.25;;;8.96;83.80
75298;BME280;63896;45.990;18.688;2022-10-17T04:12:22;102049.28;;;8.87;84.30
75298;BME280;63896;45.990;18.688;2022-10-17T04:15:25;102039.34;;;8.81;84.23
75298;BME280;63896;45.990;18.688;2022-10-17T04:18:28;102044.31;;;8.84;84.61
75298;BME280;63896;45.990;18.688;2022-10-17T04:21:32;102049.63;;;8.84;84.30
75298;BME280;63896;45.990;18.688;2022-10-17T04:24:39;102046.31;;;8.90;84.12
75298;BME280;63896;45.990;18.688;2022-10-17T04:27:59;102044.34;;;9.00;83.91
75298;BME280;63896;45.990;18.688;2022-10-17T04:31:05;102042.38;;;9.10;82.54
75298;BME280;63896;45.990;18.688;2022-10-17T04:34:14;102052.44;;;8.98;83.08
75298;BME280;63896;45.990;18.688;2022-10-17T04:37:17;102048.31;;;9.04;83.07
75298;BME280;63896;45.990;18.688;2022-10-17T04:40:21;102048.50;;;9.02;83.34
75298;BME280;63896;45.990;18.688;2022-10-17T04:43:26;102054.78;;;9.01;82.93
75298;BME280;63896;45.990;18.688;2022-10-17T04:46:29;102059.06;;;8.94;82.89
75298;BME280;63896;45.990;18.688;2022-10-17T04:49:32;102071.59;;;8.84;84.04
75298;BME280;63896;45.990;18.688;2022-10-17T04:52:42;102066.81;;;8.80;83.96
75298;BME280;63896;45.990;18.688;2022-10-17T04:55:46;102064.31;;;8.78;83.75
75298;BME280;63896;45.990;18.688;2022-10-17T04:58:50;102069.25;;;8.73;83.98
75298;BME280;63896;45.990;18.688;2022-10-17T05:01:53;102073.19;;;8.69;84.14
75298;BME280;63896;45.990;18.688;2022-10-17T05:04:57;102076.53;;;8.71;84.62
75298;BME280;63896;45.990;18.688;2022-10-17T05:08:00;102076.53;;;8.71;84.63
75298;BME280;63896;45.990;18.688;2022-10-17T05:11:18;102083.16;;;8.75;84.27
75298;BME280;63896;45.990;18.688;2022-10-17T05:14:21;102084.31;;;8.81;84.35
75298;BME280;63896;45.990;18.688;2022-10-17T05:17:26;102089.47;;;8.82;84.13
75298;BME280;63896;45.990;18.688;2022-10-17T05:20:29;102087.97;;;8.80;84.06
75298;BME280;63896;45.990;18.688;2022-10-17T05:23:32;102093.91;;;8.74;83.99
75298;BME280;63896;45.990;18.688;2022-10-17T05:26:35;102096.88;;;8.71;84.61
75298;BME280;63896;45.990;18.688;2022-10-17T05:29:38;102097.22;;;8.76;84.41
75298;BME280;63896;45.990;18.688;2022-10-17T05:32:52;102097.56;;;8.73;84.46
75298;BME280;63896;45.990;18.688;2022-10-17T05:35:57;102108.97;;;8.81;83.83
75298;BME280;63896;45.990;18.688;2022-10-17T05:39:00;102104.19;;;8.85;83.79
75298;BME280;63896;45.990;18.688;2022-10-17T05:42:03;102104.72;;;8.96;83.53
75298;BME280;63896;45.990;18.688;2022-10-17T05:45:08;102106.72;;;9.02;82.99
75298;BME280;63896;45.990;18.688;2022-10-17T05:48:11;102111.88;;;9.12;82.10
75298;BME280;63896;45.990;18.688;2022-10-17T05:51:14;102118.16;;;9.19;82.03
75298;BME280;63896;45.990;18.688;2022-10-17T05:54:20;102123.84;;;9.32;81.34
75298;BME280;63896;45.990;18.688;2022-10-17T05:57:30;102126.31;;;9.26;81.23
75298;BME280;63896;45.990;18.688;2022-10-17T06:15:51;102167.41;;;9.62;79.46
75298;BME280;63896;45.990;18.688;2022-10-17T06:18:54;102164.44;;;9.73;78.25
75298;BME280;63896;45.990;18.688;2022-10-17T06:21:58;102168.59;;;9.84;78.44
75298;BME280;63896;45.990;18.688;2022-10-17T06:25:02;102178.38;;;9.99;77.68
75298;BME280;63896;45.990;18.688;2022-10-17T06:28:06;102174.91;;;10.07;77.55
75298;BME280;63896;45.990;18.688;2022-10-17T06:31:11;102190.31;;;10.12;76.14
75298;BME280;63896;45.990;18.688;2022-10-17T06:34:19;102186.66;;;10.21;76.21
75298;BME280;63896;45.990;18.688;2022-10-17T06:37:22;102190.13;;;10.45;75.53
75298;BME280;63896;45.990;18.688;2022-10-17T06:40:25;102189.16;;;12.97;67.00
75298;BME280;63896;45.990;18.688;2022-10-17T06:43:29;102194.31;;;14.68;60.28
75298;BME280;63896;45.990;18.688;2022-10-17T06:46:51;102199.28;;;16.18;55.18
75298;BME280;63896;45.990;18.688;2022-10-17T06:49:56;102196.06;;;17.45;50.01
75298;BME280;63896;45.990;18.688;2022-10-17T06:53:06;102193.53;;;18.37;48.33
75298;BME280;63896;45.990;18.688;2022-10-17T06:56:43;102210.69;;;19.75;43.88
75298;BME280;63896;45.990;18.688;2022-10-17T07:00:21;102216.28;;;20.04;43.13
75298;BME280;63896;45.990;18.688;2022-10-17T07:03:28;102218.28;;;20.31;42.16
75298;BME280;63896;45.990;18.688;2022-10-17T07:06:31;102209.75;;;21.09;39.73
75298;BME280;63896;45.990;18.688;2022-10-17T07:09:41;102217.84;;;21.21;39.27
75298;BME280;63896;45.990;18.688;2022-10-17T07:12:44;102217.38;;;23.51;34.42
75298;BME280;63896;45.990;18.688;2022-10-17T07:15:48;102221.19;;;23.82;33.96
75298;BME280;63896;45.990;18.688;2022-10-17T07:18:52;102219.78;;;23.47;34.40
75298;BME280;63896;45.990;18.688;2022-10-17T07:21:56;102219.50;;;24.91;31.45
75298;BME280;63896;45.990;18.688;2022-10-17T07:25:10;102220.22;;;24.30;32.36
75298;BME280;63896;45.990;18.688;2022-10-17T07:28:27;102230.81;;;24.31;32.48
75298;BME280;63896;45.990;18.688;2022-10-17T07:31:37;102237.47;;;24.13;33.35
75298;BME280;63896;45.990;18.688;2022-10-17T07:34:40;102232.66;;;25.14;31.16
75298;BME280;63896;45.990;18.688;2022-10-17T07:37:44;102234.88;;;23.97;32.94
75298;BME280;63896;45.990;18.688;2022-10-17T07:40:54;102244.50;;;22.69;35.79
75298;BME280;63896;45.990;18.688;2022-10-17T07:43:57;102236.72;;;23.64;33.75
75298;BME280;63896;45.990;18.688;2022-10-17T07:47:06;102242.22;;;24.28;32.73
75298;BME280;63896;45.990;18.688;2022-10-17T07:50:11;102243.22;;;25.06;31.81
75298;BME280;63896;45.990;18.688;2022-10-17T07:53:14;102240.97;;;23.34;34.49
75298;BME280;63896;45.990;18.688;2022-10-17T07:56:17;102248.06;;;23.88;34.15
75298;BME280;63896;45.990;18.688;2022-10-17T07:59:20;102237.84;;;24.27;33.02
75298;BME280;63896;45.990;18.688;2022-10-17T08:02:25;102226.59;;;25.95;30.37
75298;BME280;63896;45.990;18.688;2022-10-17T08:05:30;102229.56;;;26.34;29.41
75298;BME280;63896;45.990;18.688;2022-10-17T08:08:33;102229.56;;;26.39;29.52
75298;BME280;63896;45.990;18.688;2022-10-17T08:11:37;102234.53;;;28.33;26.48
75298;BME280;63896;45.990;18.688;2022-10-17T08:14:40;102229.75;;;28.72;26.42
75298;BME280;63896;45.990;18.688;2022-10-17T08:17:43;102232.44;;;28.49;25.82
75298;BME280;63896;45.990;18.688;2022-10-17T08:20:46;102230.06;;;28.66;26.20
75298;BME280;63896;45.990;18.688;2022-10-17T08:23:50;102237.22;;;28.38;26.95
75298;BME280;63896;45.990;18.688;2022-10-17T08:26:52;102226.47;;;29.93;24.67
75298;BME280;63896;45.990;18.688;2022-10-17T08:29:56;102232.53;;;27.76;27.70
75298;BME280;63896;45.990;18.688;2022-10-17T08:33:06;102232.28;;;29.11;25.66
75298;BME280;63896;45.990;18.688;2022-10-17T08:36:12;102243.78;;;29.51;24.81
75298;BME280;63896;45.990;18.688;2022-10-17T08:39:15;102244.75;;;29.41;24.86
75298;BME280;63896;45.990;18.688;2022-10-17T08:45:54;102243.44;;;29.15;25.43
75298;BME280;63896;45.990;18.688;2022-10-17T08:49:04;102232.78;;;30.66;23.14
75298;BME280;63896;45.990;18.688;2022-10-17T08:52:56;102227.50;;;29.97;24.12
75298;BME280;63896;45.990;18.688;2022-10-17T09:01:39;102240.31;;;30.61;23.55
75298;BME280;63896;45.990;18.688;2022-10-17T09:21:32;102227.66;;;32.70;20.62
75298;BME280;63896;45.990;18.688;2022-10-17T09:24:47;102228.34;;;32.45;21.16
75298;BME280;63896;45.990;18.688;2022-10-17T09:28:20;102237.97;;;33.98;19.93
75298;BME280;63896;45.990;18.688;2022-10-17T09:31:31;102242.13;;;32.93;20.55
75298;BME280;63896;45.990;18.688;2022-10-17T09:34:38;102232.78;;;31.79;21.95
75298;BME280;63896;45.990;18.688;2022-10-17T09:37:42;102231.81;;;32.59;20.58
75298;BME280;63896;45.990;18.688;2022-10-17T09:40:59;102234.50;;;32.98;20.29
75298;BME280;63896;45.990;18.688;2022-10-17T09:44:23;102238.00;;;33.30;19.69
75298;BME280;63896;45.990;18.688;2022-10-17T09:47:39;102236.53;;;33.49;19.63
75298;BME280;63896;45.990;18.688;2022-10-17T09:51:09;102232.44;;;34.24;19.20
75298;BME280;63896;45.990;18.688;2022-10-17T09:54:38;102224.22;;;33.81;19.10
75298;BME280;63896;45.990;18.688;2022-10-17T09:57:56;102233.69;;;34.73;18.53
75298;BME280;63896;45.990;18.688;2022-10-17T10:01:15;102236.97;;;34.20;18.58
75298;BME280;63896;45.990;18.688;2022-10-17T10:04:25;102225.94;;;35.58;17.38
75298;BME280;63896;45.990;18.688;2022-10-17T10:07:38;102224.31;;;34.11;18.89
75298;BME280;63896;45.990;18.688;2022-10-17T10:10:42;102224.34;;;35.36;17.34
75298;BME280;63896;45.990;18.688;2022-10-17T10:13:47;102223.97;;;34.97;17.73
75298;BME280;63896;45.990;18.688;2022-10-17T10:16:51;102225.00;;;35.75;16.83
75298;BME280;63896;45.990;18.688;2022-10-17T10:19:55;102218.22;;;36.17;16.68
75298;BME280;63896;45.990;18.688;2022-10-17T10:26:23;102222.88;;;35.18;17.26
75298;BME280;63896;45.990;18.688;2022-10-17T10:29:34;102215.19;;;34.74;17.71
75298;BME280;63896;45.990;18.688;2022-10-17T10:32:38;102210.72;;;35.73;16.57
75298;BME280;63896;45.990;18.688;2022-10-17T10:35:41;102212.28;;;35.95;16.16
75298;BME280;63896;45.990;18.688;2022-10-17T10:38:51;102202.22;;;35.24;16.74
75298;BME280;63896;45.990;18.688;2022-10-17T10:41:55;102205.00;;;36.47;15.55
75298;BME280;63896;45.990;18.688;2022-10-17T10:45:18;102204.16;;;34.74;17.41
75298;BME280;63896;45.990;18.688;2022-10-17T10:48:52;102200.03;;;35.71;16.71
75298;BME280;63896;45.990;18.688;2022-10-17T10:51:57;102198.53;;;34.24;18.64
75298;BME280;63896;45.990;18.688;2022-10-17T10:55:31;102184.50;;;35.58;16.01
75298;BME280;63896;45.990;18.688;2022-10-17T10:59:09;102193.25;;;34.48;17.23
75298;BME280;63896;45.990;18.688;2022-10-17T11:02:32;102186.66;;;35.20;15.63
75298;BME280;63896;45.990;18.688;2022-10-17T11:06:27;102188.59;;;34.40;16.98
75298;BME280;63896;45.990;18.688;2022-10-17T11:13:22;102183.63;;;34.25;15.42
75298;BME280;63896;45.990;18.688;2022-10-17T11:23:18;102169.88;;;35.58;14.04
75298;BME280;63896;45.990;18.688;2022-10-17T11:26:28;102177.34;;;36.11;14.02
75298;BME280;63896;45.990;18.688;2022-10-17T11:29:38;102176.94;;;36.00;13.94
75298;BME280;63896;45.990;18.688;2022-10-17T11:32:50;102162.94;;;35.72;14.27
75298;BME280;63896;45.990;18.688;2022-10-17T11:36:02;102163.31;;;35.50;14.01
75298;BME280;63896;45.990;18.688;2022-10-17T11:39:46;102163.13;;;34.93;14.92
75298;BME280;63896;45.990;18.688;2022-10-17T11:42:58;102160.38;;;34.93;14.88
75298;BME280;63896;45.990;18.688;2022-10-17T11:49:28;102154.97;;;34.76;15.21
75298;BME280;63896;45.990;18.688;2022-10-17T11:52:47;102148.78;;;35.41;14.38
75298;BME280;63896;45.990;18.688;2022-10-17T11:55:59;102146.88;;;35.99;14.24
75298;BME280;63896;45.990;18.688;2022-10-17T11:59:26;102142.41;;;36.55;13.90
75298;BME280;63896;45.990;18.688;2022-10-17T12:05:57;102138.31;;;35.47;14.53
75298;BME280;63896;45.990;18.688;2022-10-17T12:12:30;102143.13;;;34.17;15.83
75298;BME280;63896;45.990;18.688;2022-10-17T12:15:34;102137.88;;;34.32;15.96
75298;BME280;63896;45.990;18.688;2022-10-17T12:18:37;102137.47;;;33.15;16.30
75298;BME280;63896;45.990;18.688;2022-10-17T12:22:17;102131.19;;;33.87;15.14
75298;BME280;63896;45.990;18.688;2022-10-17T12:25:26;102122.09;;;33.95;15.83
75298;BME280;63896;45.990;18.688;2022-10-17T12:28:43;102137.31;;;33.29;16.21
75298;BME280;63896;45.990;18.688;2022-10-17T12:31:46;102132.28;;;33.48;15.40
75298;BME280;63896;45.990;18.688;2022-10-17T12:34:52;102128.72;;;33.39;15.55
75298;BME280;63896;45.990;18.688;2022-10-17T12:41:04;102115.72;;;31.83;17.15
75298;BME280;63896;45.990;18.688;2022-10-17T12:47:38;102119.69;;;32.39;16.94
75298;BME280;63896;45.990;18.688;2022-10-17T12:51:07;102113.97;;;32.92;15.98
75298;BME280;63896;45.990;18.688;2022-10-17T12:54:39;102108.34;;;31.92;17.42
75298;BME280;63896;45.990;18.688;2022-10-17T12:58:11;102102.63;;;32.76;16.52
75298;BME280;63896;45.990;18.688;2022-10-17T13:01:31;102110.09;;;31.57;17.52
75298;BME280;63896;45.990;18.688;2022-10-17T13:04:36;102110.69;;;30.60;18.08
75298;BME280;63896;45.990;18.688;2022-10-17T13:07:41;102108.19;;;32.28;17.02
75298;BME280;63896;45.990;18.688;2022-10-17T13:11:05;102096.38;;;31.57;17.08
75298;BME280;63896;45.990;18.688;2022-10-17T13:14:32;102101.34;;;31.33;17.62
75298;BME280;63896;45.990;18.688;2022-10-17T13:17:35;102103.03;;;30.71;17.90
75298;BME280;63896;45.990;18.688;2022-10-17T13:21:00;102102.63;;;30.78;19.10
75298;BME280;63896;45.990;18.688;2022-10-17T13:24:20;102098.34;;;32.36;16.48
75298;BME280;63896;45.990;18.688;2022-10-17T13:27:28;102098.78;;;32.21;16.87
75298;BME280;63896;45.990;18.688;2022-10-17T13:30:35;102093.09;;;30.75;18.64
75298;BME280;63896;45.990;18.688;2022-10-17T13:33:39;102088.66;;;31.68;17.38
75298;BME280;63896;45.990;18.688;2022-10-17T13:36:51;102079.63;;;31.45;17.44
75298;BME280;63896;45.990;18.688;2022-10-17T13:39:55;102078.56;;;31.33;17.40
75298;BME280;63896;45.990;18.688;2022-10-17T13:43:16;102085.22;;;31.54;17.19
75298;BME280;63896;45.990;18.688;2022-10-17T13:46:29;102089.00;;;28.75;20.72
75298;BME280;63896;45.990;18.688;2022-10-17T13:49:41;102086.97;;;27.90;21.34
75298;BME280;63896;45.990;18.688;2022-10-17T13:52:46;102083.72;;;29.16;20.67
75298;BME280;63896;45.990;18.688;2022-10-17T13:59:24;102085.72;;;30.35;18.84
75298;BME280;63896;45.990;18.688;2022-10-17T14:02:29;102086.25;;;29.96;18.96
75298;BME280;63896;45.990;18.688;2022-10-17T14:05:32;102088.81;;;28.66;20.07
75298;BME280;63896;45.990;18.688;2022-10-17T14:08:38;102086.19;;;28.99;19.74
75298;BME280;63896;45.990;18.688;2022-10-17T14:11:58;102082.47;;;29.27;19.62
75298;BME280;63896;45.990;18.688;2022-10-17T14:15:02;102078.84;;;29.13;19.69
75298;BME280;63896;45.990;18.688;2022-10-17T14:18:19;102081.84;;;28.08;21.38
75298;BME280;63896;45.990;18.688;2022-10-17T14:21:25;102094.53;;;27.70;21.27
75298;BME280;63896;45.990;18.688;2022-10-17T14:24:46;102087.28;;;27.60;21.14
75298;BME280;63896;45.990;18.688;2022-10-17T14:28:01;102086.59;;;27.39;21.79
75298;BME280;63896;45.990;18.688;2022-10-17T14:31:31;102083.06;;;27.39;21.13
75298;BME280;63896;45.990;18.688;2022-10-17T14:34:38;102076.63;;;26.81;22.09
75298;BME280;63896;45.990;18.688;2022-10-17T14:37:49;102071.81;;;24.97;24.64
75298;BME280;63896;45.990;18.688;2022-10-17T14:41:27;102088.75;;;23.37;26.98
75298;BME280;63896;45.990;18.688;2022-10-17T14:44:50;102081.88;;;22.32;28.79
75298;BME280;63896;45.990;18.688;2022-10-17T14:47:56;102090.56;;;22.12;28.87
75298;BME280;63896;45.990;18.688;2022-10-17T14:51:12;102095.69;;;21.92;29.75
75298;BME280;63896;45.990;18.688;2022-10-17T14:54:25;102091.97;;;21.65;29.71
75298;BME280;63896;45.990;18.688;2022-10-17T14:57:42;102091.31;;;21.41;30.39
75298;BME280;63896;45.990;18.688;2022-10-17T15:00:46;102090.91;;;21.04;31.26
75298;BME280;63896;45.990;18.688;2022-10-17T15:03:48;102093.88;;;20.91;31.56
75298;BME280;63896;45.990;18.688;2022-10-17T15:06:54;102098.50;;;20.79;32.05
75298;BME280;63896;45.990;18.688;2022-10-17T15:09:57;102089.75;;;20.72;31.93
75298;BME280;63896;45.990;18.688;2022-10-17T15:13:01;102089.06;;;20.65;32.27
75298;BME280;63896;45.990;18.688;2022-10-17T15:16:26;102088.88;;;20.43;32.64
75298;BME280;63896;45.990;18.688;2022-10-17T15:19:32;102096.03;;;20.26;32.94
75298;BME280;63896;45.990;18.688;2022-10-17T15:22:35;102082.09;;;20.06;33.31
75298;BME280;63896;45.990;18.688;2022-10-17T15:25:38;102088.09;;;19.96;34.05
75298;BME280;63896;45.990;18.688;2022-10-17T15:28:41;102094.66;;;19.88;33.87
75298;BME280;63896;45.990;18.688;2022-10-17T15:31:44;102092.66;;;19.72;34.34
75298;BME280;63896;45.990;18.688;2022-10-17T15:34:48;102093.53;;;19.55;35.02
75298;BME280;63896;45.990;18.688;2022-10-17T15:37:50;102098.63;;;19.33;35.24
75298;BME280;63896;45.990;18.688;2022-10-17T15:40:53;102099.53;;;19.15;35.78
75298;BME280;63896;45.990;18.688;2022-10-17T15:43:57;102102.03;;;18.98;36.30
75298;BME280;63896;45.990;18.688;2022-10-17T15:47:00;102100.50;;;18.73;37.55
75298;BME280;63896;45.990;18.688;2022-10-17T15:50:04;102102.31;;;18.61;37.82
75298;BME280;63896;45.990;18.688;2022-10-17T15:53:11;102106.91;;;18.35;38.86
75298;BME280;63896;45.990;18.688;2022-10-17T15:59:30;102104.47;;;17.91;40.37
75298;BME280;63896;45.990;18.688;2022-10-17T16:02:33;102115.56;;;17.70;40.91
75298;BME280;63896;45.990;18.688;2022-10-17T16:05:36;102123.97;;;17.48;42.99
75298;BME280;63896;45.990;18.688;2022-10-17T16:08:39;102126.16;;;17.27;43.82
75298;BME280;63896;45.990;18.688;2022-10-17T16:11:43;102131.00;;;17.18;44.59
75298;BME280;63896;45.990;18.688;2022-10-17T16:14:46;102126.75;;;16.97;45.86
75298;BME280;63896;45.990;18.688;2022-10-17T16:17:50;102129.03;;;16.94;45.74
75298;BME280;63896;45.990;18.688;2022-10-17T16:20:54;102131.59;;;16.76;47.00
75298;BME280;63896;45.990;18.688;2022-10-17T16:23:57;102137.19;;;16.61;47.67
75298;BME280;63896;45.990;18.688;2022-10-17T16:27:01;102141.34;;;16.44;48.66
75298;BME280;63896;45.990;18.688;2022-10-17T16:30:06;102141.53;;;16.55;46.20
75298;BME280;63896;45.990;18.688;2022-10-17T16:33:09;102135.53;;;16.53;46.61
75298;BME280;63896;45.990;18.688;2022-10-17T16:36:17;102145.91;;;16.56;46.53
75298;BME280;63896;45.990;18.688;2022-10-17T16:39:20;102148.97;;;16.47;47.46
75298;BME280;63896;45.990;18.688;2022-10-17T16:42:23;102146.72;;;16.31;48.09
75298;BME280;63896;45.990;18.688;2022-10-17T16:45:26;102147.78;;;16.03;49.73
75298;BME280;63896;45.990;18.688;2022-10-17T16:48:29;102158.09;;;15.87;49.63
75298;BME280;63896;45.990;18.688;2022-10-17T16:51:32;102162.81;;;15.85;49.42
75298;BME280;63896;45.990;18.688;2022-10-17T16:54:37;102159.13;;;15.86;49.18
75298;BME280;63896;45.990;18.688;2022-10-17T16:57:42;102160.97;;;16.11;47.84
75298;BME280;63896;45.990;18.688;2022-10-17T17:00:46;102153.13;;;16.23;46.90
75298;BME280;63896;45.990;18.688;2022-10-17T17:03:51;102150.44;;;16.23;47.52
75298;BME280;63896;45.990;18.688;2022-10-17T17:06:57;102148.41;;;16.25;47.12
75298;BME280;63896;45.990;18.688;2022-10-17T17:10:05;102136.03;;;15.91;48.30
75298;BME280;63896;45.990;18.688;2022-10-17T17:13:08;102161.59;;;15.94;48.27
75298;BME280;63896;45.990;18.688;2022-10-17T17:16:14;102151.69;;;15.68;48.43
75298;BME280;63896;45.990;18.688;2022-10-17T17:19:17;102155.19;;;15.62;48.45
75298;BME280;63896;45.990;18.688;2022-10-17T17:22:21;102161.06;;;15.31;50.77
75298;BME280;63896;45.990;18.688;2022-10-17T17:25:25;102175.00;;;15.13;50.76
75298;BME280;63896;45.990;18.688;2022-10-17T17:28:28;102167.09;;;14.92;50.20
75298;BME280;63896;45.990;18.688;2022-10-17T17:31:33;102176.53;;;14.88;49.84
75298;BME280;63896;45.990;18.688;2022-10-17T17:34:40;102174.41;;;14.70;50.26
75298;BME280;63896;45.990;18.688;2022-10-17T17:37:43;102166.13;;;14.59;50.74
75298;BME280;63896;45.990;18.688;2022-10-17T17:40:46;102181.06;;;14.53;51.99
75298;BME280;63896;45.990;18.688;2022-10-17T17:43:53;102178.16;;;14.48;53.46
75298;BME280;63896;45.990;18.688;2022-10-17T17:46:57;102172.78;;;14.42;53.42
75298;BME280;63896;45.990;18.688;2022-10-17T17:50:00;102176.13;;;14.50;53.00
75298;BME280;63896;45.990;18.688;2022-10-17T17:53:05;102177.81;;;14.58;52.20
75298;BME280;63896;45.990;18.688;2022-10-17T17:56:11;102183.34;;;14.56;51.62
75298;BME280;63896;45.990;18.688;2022-10-17T17:59:17;102183.50;;;14.48;51.47
75298;BME280;63896;45.990;18.688;2022-10-17T18:02:20;102184.28;;;14.42;52.18